Map

Track Data

SID SEASON NUMBER BASIN SUBBASIN NAME ISO_TIME NATURE LAT LON WMO_WIND WMO_PRES WMO_AGENCY TRACK_TYPE DIST2LAND LANDFALL IFLAG USA_AGENCY USA_ATCF_ID USA_LAT USA_LON USA_RECORD USA_STATUS USA_WIND USA_PRES USA_SSHS USA_R34_NE USA_R34_SE USA_R34_SW USA_R34_NW USA_R50_NE USA_R50_SE USA_R50_SW USA_R50_NW USA_R64_NE USA_R64_SE USA_R64_SW USA_R64_NW USA_POCI USA_ROCI USA_RMW USA_EYE TOKYO_LAT TOKYO_LON TOKYO_GRADE TOKYO_WIND TOKYO_PRES TOKYO_R50_DIR TOKYO_R50_LONG TOKYO_R50_SHORT TOKYO_R30_DIR TOKYO_R30_LONG TOKYO_R30_SHORT TOKYO_LAND CMA_LAT CMA_LON CMA_CAT CMA_WIND CMA_PRES HKO_LAT HKO_LON HKO_CAT HKO_WIND HKO_PRES NEWDELHI_LAT NEWDELHI_LON NEWDELHI_GRADE NEWDELHI_WIND NEWDELHI_PRES NEWDELHI_CI NEWDELHI_DP NEWDELHI_POCI REUNION_LAT REUNION_LON REUNION_TYPE REUNION_WIND REUNION_PRES REUNION_TNUM REUNION_CI REUNION_RMW REUNION_R34_NE REUNION_R34_SE REUNION_R34_SW REUNION_R34_NW REUNION_R50_NE REUNION_R50_SE REUNION_R50_SW REUNION_R50_NW REUNION_R64_NE REUNION_R64_SE REUNION_R64_SW REUNION_R64_NW BOM_LAT BOM_LON BOM_TYPE BOM_WIND BOM_PRES BOM_TNUM BOM_CI BOM_RMW BOM_R34_NE BOM_R34_SE BOM_R34_SW BOM_R34_NW BOM_R50_NE BOM_R50_SE BOM_R50_SW BOM_R50_NW BOM_R64_NE BOM_R64_SE BOM_R64_SW BOM_R64_NW BOM_ROCI BOM_POCI BOM_EYE BOM_POS_METHOD BOM_PRES_METHOD NADI_LAT NADI_LON NADI_CAT NADI_WIND NADI_PRES WELLINGTON_LAT WELLINGTON_LON WELLINGTON_WIND WELLINGTON_PRES DS824_LAT DS824_LON DS824_STAGE DS824_WIND DS824_PRES TD9636_LAT TD9636_LON TD9636_STAGE TD9636_WIND TD9636_PRES TD9635_LAT TD9635_LON TD9635_WIND TD9635_PRES TD9635_ROCI NEUMANN_LAT NEUMANN_LON NEUMANN_CLASS NEUMANN_WIND NEUMANN_PRES MLC_LAT MLC_LON MLC_CLASS MLC_WIND MLC_PRES USA_GUST BOM_GUST BOM_GUST_PER REUNION_GUST REUNION_GUST_PER USA_SEAHGT USA_SEARAD_NE USA_SEARAD_SE USA_SEARAD_SW USA_SEARAD_NW STORM_SPEED STORM_DIR
1911268N12129 1911 62 WP MM NOT_NAMED 1911-09-24 16:00:00 NR 12.2000 128.900 main 363 337 __________O___ -1 12.2000 128.900 3 12 311
1911268N12129 1911 62 WP MM NOT_NAMED 1911-09-24 18:00:00 NR 12.4657 128.593 main 338 293 __________P___ -1 12.4657 128.593 3 12 312
1911268N12129 1911 62 WP MM NOT_NAMED 1911-09-24 21:00:00 NR 12.8581 128.140 main 293 263 __________P___ -1 12.8581 128.140 3 12 312
1911268N12129 1911 62 WP MM NOT_NAMED 1911-09-25 00:00:00 NR 13.2353 127.711 main 263 250 __________P___ -1 13.2353 127.711 3 11 312
1911268N12129 1911 62 WP MM NOT_NAMED 1911-09-25 03:00:00 NR 13.5889 127.320 main 250 249 __________P___ -1 13.5889 127.320 3 10 313
1911268N12129 1911 62 WP MM NOT_NAMED 1911-09-25 04:00:00 NR 13.7000 127.200 main 249 241 __________O___ -1 13.7000 127.200 4 9 314
1911268N12129 1911 62 WP MM NOT_NAMED 1911-09-25 06:00:00 NR 13.9111 126.979 main 249 241 __________P___ -1 13.9111 126.979 4 9 315
1911268N12129 1911 62 WP MM NOT_NAMED 1911-09-25 09:00:00 NR 14.2028 126.679 main 250 222 __________P___ -1 14.2028 126.679 4 8 315
1911268N12129 1911 62 WP MM NOT_NAMED 1911-09-25 12:00:00 NR 14.4703 126.396 main 225 203 __________P___ -1 14.4703 126.396 4 8 313
1911268N12129 1911 62 WP MM NOT_NAMED 1911-09-25 15:00:00 NR 14.7198 126.104 main 203 199 __________P___ -1 14.7198 126.104 4 8 311
1911268N12129 1911 62 WP MM NOT_NAMED 1911-09-25 16:00:00 NR 14.8000 126.000 main 199 187 __________O___ -1 14.8000 126.000 4 8 306
1911268N12129 1911 62 WP MM NOT_NAMED 1911-09-25 18:00:00 NR 14.9694 125.754 main 194 178 __________P___ -1 14.9694 125.754 4 9 304
1911268N12129 1911 62 WP MM NOT_NAMED 1911-09-25 21:00:00 NR 15.2110 125.366 main 179 169 __________P___ -1 15.2110 125.366 4 9 302
1911268N12129 1911 62 WP MM NOT_NAMED 1911-09-26 00:00:00 NR 15.4348 124.977 main 173 173 __________P___ -1 15.4348 124.977 4 8 300
1911268N12129 1911 62 WP MM NOT_NAMED 1911-09-26 03:00:00 NR 15.6376 124.612 main 181 181 __________P___ -1 15.6376 124.612 4 8 300
1911268N12129 1911 62 WP MM NOT_NAMED 1911-09-26 04:00:00 NR 15.7000 124.500 main 191 190 __________O___ -1 15.7000 124.500 4 7 301
1911268N12129 1911 62 WP MM NOT_NAMED 1911-09-26 06:00:00 NR 15.8195 124.302 main 201 189 __________P___ -1 15.8195 124.302 4 6 302
1911268N12129 1911 62 WP MM NOT_NAMED 1911-09-26 09:00:00 NR 15.9801 124.036 main 189 165 __________P___ -1 15.9801 124.036 4 6 302
1911268N12129 1911 62 WP MM NOT_NAMED 1911-09-26 12:00:00 NR 16.1239 123.798 main 165 135 __________P___ -1 16.1239 123.798 4 5 302
1911268N12129 1911 62 WP MM NOT_NAMED 1911-09-26 15:00:00 NR 16.2570 123.574 main 135 125 __________P___ -1 16.2570 123.574 4 5 302
1911268N12129 1911 62 WP MM NOT_NAMED 1911-09-26 16:00:00 NR 16.3000 123.500 main 125 111 __________O___ -1 16.3000 123.500 4 5 301
1911268N12129 1911 62 WP MM NOT_NAMED 1911-09-26 18:00:00 NR 16.3863 123.352 main 111 78 __________P___ -1 16.3863 123.352 4 5 301
1911268N12129 1911 62 WP MM NOT_NAMED 1911-09-26 21:00:00 NR 16.5094 123.137 main 78 54 __________P___ -1 16.5094 123.137 4 5 300
1911268N12129 1911 62 WP MM NOT_NAMED 1911-09-27 00:00:00 NR 16.6306 122.918 main 54 24 __________P___ -1 16.6306 122.918 4 5 300
1911268N12129 1911 62 WP MM NOT_NAMED 1911-09-27 03:00:00 NR 16.7561 122.684 main 24 15 __________P___ -1 16.7561 122.684 4 5 299
1911268N12129 1911 62 WP MM NOT_NAMED 1911-09-27 04:00:00 NR 16.8000 122.600 main 15 0 __________O___ -1 16.8000 122.600 4 6 298
1911268N12129 1911 62 WP MM NOT_NAMED 1911-09-27 06:00:00 NR 16.8944 122.409 main 0 0 __________P___ -1 16.8944 122.409 4 6 297
1911268N12129 1911 62 WP MM NOT_NAMED 1911-09-27 09:00:00 NR 17.0422 122.104 main 0 0 __________P___ -1 17.0422 122.104 4 7 297
1911268N12129 1911 62 WP MM NOT_NAMED 1911-09-27 12:00:00 NR 17.1947 121.793 main 0 0 __________P___ -1 17.1947 121.793 4 7 298
1911268N12129 1911 62 WP MM NOT_NAMED 1911-09-27 15:00:00 NR 17.3488 121.494 main 0 0 __________P___ -1 17.3488 121.494 4 6 299
1911268N12129 1911 62 WP MM NOT_NAMED 1911-09-27 16:00:00 NR 17.4000 121.400 main 0 0 __________O___ -1 17.4000 121.400 4 6 301
1911268N12129 1911 62 WP MM NOT_NAMED 1911-09-27 18:00:00 NR 17.4999 121.230 main 0 0 __________P___ -1 17.4999 121.230 4 6 303
1911268N12129 1911 62 WP MM NOT_NAMED 1911-09-27 21:00:00 NR 17.6498 120.994 main 0 0 __________P___ -1 17.6498 120.994 4 5 305
1911268N12129 1911 62 WP MM NOT_NAMED 1911-09-28 00:00:00 NR 17.7998 120.776 main 0 0 __________P___ -1 17.7998 120.776 4 5 306
1911268N12129 1911 62 WP MM NOT_NAMED 1911-09-28 03:00:00 NR 17.9499 120.568 main 0 0 __________P___ -1 17.9499 120.568 4 5 307
1911268N12129 1911 62 WP MM NOT_NAMED 1911-09-28 04:00:00 NR 18.0000 120.500 main 0 0 __________O___ -1 18.0000 120.500 4 5 308
1911268N12129 1911 62 WP MM NOT_NAMED 1911-09-28 06:00:00 NR 18.1026 120.358 main 10 21 __________P___ -1 18.1026 120.358 4 5 308
1911268N12129 1911 62 WP MM NOT_NAMED 1911-09-28 09:00:00 NR 18.2565 120.152 main 38 47 __________P___ -1 18.2565 120.152 4 5 308
1911268N12129 1911 62 WP MM NOT_NAMED 1911-09-28 12:00:00 NR 18.4078 119.953 main 62 71 __________P___ -1 18.4078 119.953 4 5 309
1911268N12129 1911 62 WP MM NOT_NAMED 1911-09-28 15:00:00 NR 18.5533 119.762 main 87 87 __________P___ -1 18.5533 119.762 4 5 308
1911268N12129 1911 62 WP MM NOT_NAMED 1911-09-28 16:00:00 NR 18.6000 119.700 main 97 97 __________O___ -1 18.6000 119.700 4 4 308
1911268N12129 1911 62 WP MM NOT_NAMED 1911-09-28 18:00:00 NR 18.6811 119.585 main 110 110 __________P___ -1 18.6811 119.585 4 4 306
1911268N12129 1911 62 WP MM NOT_NAMED 1911-09-28 21:00:00 NR 18.7962 119.420 main 134 134 __________P___ -1 18.7962 119.420 4 4 306
1911268N12129 1911 62 WP MM NOT_NAMED 1911-09-29 00:00:00 NR 18.9148 119.251 main 147 157 __________P___ -1 18.9148 119.251 4 4 307
1911268N12129 1911 62 WP MM NOT_NAMED 1911-09-29 03:00:00 NR 19.0494 119.067 main 171 176 __________P___ -1 19.0494 119.067 4 5 308
1911268N12129 1911 62 WP MM NOT_NAMED 1911-09-29 04:00:00 NR 19.1000 119.000 main 185 185 __________O___ -1 19.1000 119.000 4 5 309
1911268N12129 1911 62 WP MM NOT_NAMED 1911-09-29 06:00:00 NR 19.2136 118.850 main 200 209 __________P___ -1 19.2136 118.850 4 6 309
1911268N12129 1911 62 WP MM NOT_NAMED 1911-09-29 09:00:00 NR 19.4029 118.607 main 238 238 __________P___ -1 19.4029 118.607 4 6 310
1911268N12129 1911 62 WP MM NOT_NAMED 1911-09-29 12:00:00 NR 19.6092 118.350 main 276 276 __________P___ -1 19.6092 118.350 4 6 311
1911268N12129 1911 62 WP MM NOT_NAMED 1911-09-29 15:00:00 NR 19.8263 118.087 main 305 305 __________P___ -1 19.8263 118.087 4 7 312
1911268N12129 1911 62 WP MM NOT_NAMED 1911-09-29 16:00:00 NR 19.9000 118.000 main 320 320 __________O___ -1 19.9000 118.000 4 7 313
1911268N12129 1911 62 WP MM NOT_NAMED 1911-09-29 18:00:00 NR 20.0574 117.820 main 340 312 __________P___ -1 20.0574 117.820 4 7 313
1911268N12129 1911 62 WP MM NOT_NAMED 1911-09-29 21:00:00 NR 20.3002 117.551 main 312 280 __________P___ -1 20.3002 117.551 4 7 314
1911268N12129 1911 62 WP MM NOT_NAMED 1911-09-30 00:00:00 NR 20.5342 117.294 main 280 253 __________P___ -1 20.5342 117.294 4 6 314
1911268N12129 1911 62 WP MM NOT_NAMED 1911-09-30 03:00:00 NR 20.7406 117.067 main 253 240 __________P___ -1 20.7406 117.067 4 6 314
1911268N12129 1911 62 WP MM NOT_NAMED 1911-09-30 04:00:00 NR 20.8000 117.000 main 240 227 __________O___ -1 20.8000 117.000 4 4 313
1911268N12129 1911 62 WP MM NOT_NAMED 1911-09-30 06:00:00 NR 20.8924 116.893 main 227 213 __________P___ -1 20.8924 116.893 4 4 312
1911268N12129 1911 62 WP MM NOT_NAMED 1911-09-30 09:00:00 NR 20.9995 116.764 main 213 199 __________P___ -1 20.9995 116.764 4 3 311
1911268N12129 1911 62 WP MM NOT_NAMED 1911-09-30 12:00:00 NR 21.0856 116.655 main 199 182 __________P___ -1 21.0856 116.655 4 3 309
1911268N12129 1911 62 WP MM NOT_NAMED 1911-09-30 15:00:00 NR 21.1694 116.542 main 182 182 __________P___ -1 21.1694 116.542 4 3 309
1911268N12129 1911 62 WP MM NOT_NAMED 1911-09-30 16:00:00 NR 21.2000 116.500 main 182 178 __________O___ -1 21.2000 116.500 4 3 297
1911268N12129 1911 62 WP MM NOT_NAMED 1911-09-30 18:00:00 NR 21.2436 116.392 main 178 161 __________P___ -1 21.2436 116.392 4 3 294
1911268N12129 1911 62 WP MM NOT_NAMED 1911-09-30 21:00:00 NR 21.3144 116.217 main 161 146 __________P___ -1 21.3144 116.217 4 4 299
1911268N12129 1911 62 WP MM NOT_NAMED 1911-10-01 00:00:00 NR 21.4253 116.036 main 146 123 __________P___ -1 21.4253 116.036 4 5 312
1911268N12129 1911 62 WP MM NOT_NAMED 1911-10-01 03:00:00 NR 21.6135 115.857 main 123 111 __________P___ -1 21.6135 115.857 4 5 321
1911268N12129 1911 62 WP MM NOT_NAMED 1911-10-01 04:00:00 NR 21.7000 115.800 main 111 90 __________O___ -1 21.7000 115.800 4 7 329
1911268N12129 1911 62 WP MM NOT_NAMED 1911-10-01 06:00:00 NR 21.9153 115.659 main 90 44 __________P___ -1 21.9153 115.659 4 8 332
1911268N12129 1911 62 WP MM NOT_NAMED 1911-10-01 09:00:00 NR 22.3201 115.452 main 44 0 __________P___ -1 22.3201 115.452 4 10 339
1911268N12129 1911 62 WP MM NOT_NAMED 1911-10-01 12:00:00 NR 22.7978 115.286 main 0 0 __________P___ -1 22.7978 115.286 4 10 347
1911268N12129 1911 62 WP MM NOT_NAMED 1911-10-01 15:00:00 NR 23.3206 115.203 main 0 0 __________P___ -1 23.3206 115.203 4 11 354
1911268N12129 1911 62 WP MM NOT_NAMED 1911-10-01 16:00:00 NR 23.5000 115.200 main 0 0 __________O___ -1 23.5000 115.200 4 11 0
1911268N12129 1911 62 WP MM NOT_NAMED 1911-10-01 18:00:00 NR 23.8514 115.227 main 0 0 __________P___ -1 23.8514 115.227 4 11 9
1911268N12129 1911 62 WP MM NOT_NAMED 1911-10-01 21:00:00 NR 24.4040 115.355 main 0 0 __________P___ -1 24.4040 115.355 4 12 16
1911268N12129 1911 62 WP MM NOT_NAMED 1911-10-02 00:00:00 NR 24.9680 115.578 main 0 0 __________P___ -1 24.9680 115.578 4 12 23
1911268N12129 1911 62 WP MM NOT_NAMED 1911-10-02 03:00:00 NR 25.5216 115.883 main 0 0 __________P___ -1 25.5216 115.883 4 12 27
1911268N12129 1911 62 WP MM NOT_NAMED 1911-10-02 04:00:00 NR 25.7000 116.000 main 0 0 __________O___ -1 25.7000 116.000 4 12 29
1911268N12129 1911 62 WP MM NOT_NAMED 1911-10-02 06:00:00 NR 26.0649 116.219 main 0 0 __________P___ -1 26.0649 116.219 4 13 32
1911268N12129 1911 62 WP MM NOT_NAMED 1911-10-02 09:00:00 NR 26.5940 116.610 main 0 0 __________P___ -1 26.5940 116.610 4 13 37
1911268N12129 1911 62 WP MM NOT_NAMED 1911-10-02 12:00:00 NR 27.0767 117.073 main 0 0 __________P___ -1 27.0767 117.073 4 13 45
1911268N12129 1911 62 WP MM NOT_NAMED 1911-10-02 15:00:00 NR 27.4851 117.607 main 0 0 __________P___ -1 27.4851 117.607 4 12 51
1911268N12129 1911 62 WP MM NOT_NAMED 1911-10-02 16:00:00 NR 27.6000 117.800 main 0 0 __________O___ -1 27.6000 117.800 4 12 55
1911268N12129 1911 62 WP MM NOT_NAMED 1911-10-02 18:00:00 NR 27.8451 118.181 main 0 0 __________P___ -1 27.8451 118.181 4 13 59
1911268N12129 1911 62 WP MM NOT_NAMED 1911-10-02 21:00:00 NR 28.1384 118.810 main 0 0 __________P___ -1 28.1384 118.810 4 13 68
1911268N12129 1911 62 WP MM NOT_NAMED 1911-10-03 00:00:00 NR 28.3123 119.499 main 0 0 __________P___ -1 28.3123 119.499 4 13 81
1911268N12129 1911 62 WP MM NOT_NAMED 1911-10-03 03:00:00 NR 28.3330 120.242 main 0 0 __________P___ -1 28.3330 120.242 4 13 91
1911268N12129 1911 62 WP MM NOT_NAMED 1911-10-03 04:00:00 NR 28.3000 120.500 main 0 0 __________O___ -1 28.3000 120.500 4 14 108
1911268N12129 1911 62 WP MM NOT_NAMED 1911-10-03 06:00:00 NR 28.1145 121.019 main 0 9 __________P___ -1 28.1145 121.019 4 16 117
1911268N12129 1911 62 WP MM NOT_NAMED 1911-10-03 09:00:00 NR 27.6902 121.832 main 66 73 __________P___ -1 27.6902 121.832 4 17 122
1911268N12129 1911 62 WP MM NOT_NAMED 1911-10-03 12:00:00 NR 27.2074 122.670 main 163 163 __________P___ -1 27.2074 122.670 4 17 121
1911268N12129 1911 62 WP MM NOT_NAMED 1911-10-03 15:00:00 NR 26.7976 123.517 main 250 254 __________P___ -1 26.7976 123.517 4 17 117
1911268N12129 1911 62 WP MM NOT_NAMED 1911-10-03 16:00:00 NR 26.7000 123.800 main 261 261 __________O___ -1 26.7000 123.800 4 16 106
1911268N12129 1911 62 WP MM NOT_NAMED 1911-10-03 18:00:00 NR 26.5831 124.364 main 299 299 __________P___ -1 26.5831 124.364 4 15 96
1911268N12129 1911 62 WP MM NOT_NAMED 1911-10-03 21:00:00 NR 26.5741 125.211 main 366 375 __________P___ -1 26.5741 125.211 4 15 85
1911268N12129 1911 62 WP MM NOT_NAMED 1911-10-04 00:00:00 NR 26.7083 126.060 main 451 451 __________P___ -1 26.7083 126.060 4 16 77
1911268N12129 1911 62 WP MM NOT_NAMED 1911-10-04 03:00:00 NR 26.9221 126.914 main 533 542 __________P___ -1 26.9221 126.914 4 16 74
1911268N12129 1911 62 WP MM NOT_NAMED 1911-10-04 04:00:00 NR 27.0000 127.200 main 551 __________O___ -1 27.0000 127.200 4 16 73

Digital Typhoon Data and Search

About IBTrACS Database

This database is a web-friendly format of International Best Track Archive for Climate Stewardship (IBTrACS), a global best track data archive curated by NOAA dating back to 1842.

Updated: 2021-12-06